Time;durP1;ratioP1;P1;durP2;ratioP2;P2;SDS_P1;SDS_P2;PMS_P1;PMS_P2;Temp;Humidity;BMP_temperature;BMP_pressure;BME280_temperature;BME280_humidity;BME280_pressure;Samples;Min_cycle;Max_cycle;Signal;HPM_P1;HPM_P2
2021/05/04 00:02:22;;;;;;;6.58;2.58;;;;;;;8.86;73.47;101102.80;1827445;78;21098;-54
2021/05/04 00:04:50;;;;;;;9.13;3.02;;;;;;;8.83;73.32;101085.48;1827336;78;21194;-54
2021/05/04 00:07:18;;;;;;;9.43;3.52;;;;;;;8.82;73.32;101097.54;1830220;77;21462;-54
2021/05/04 00:09:45;;;;;;;13.95;3.62;;;;;;;8.78;73.44;101106.11;1830360;78;21316;-54
2021/05/04 00:12:13;;;;;;;8.73;3.60;;;;;;;8.77;73.49;101110.14;1830367;78;21126;-55
2021/05/04 00:14:41;;;;;;;6.97;3.20;;;;;;;8.77;73.59;101112.81;1830240;77;21050;-54
2021/05/04 00:17:08;;;;;;;8.83;3.80;;;;;;;8.78;73.68;101115.91;1830365;78;21032;-54
2021/05/04 00:19:39;;;;;;;8.40;3.67;;;;;;;8.77;73.74;101108.36;1830294;78;21047;-54
2021/05/04 00:22:08;;;;;;;12.88;3.98;;;;;;;8.75;73.83;101115.53;1830343;78;21675;-54
2021/05/04 00:24:36;;;;;;;10.18;3.45;;;;;;;8.75;73.58;101118.20;1830266;78;21107;-54
2021/05/04 00:27:04;;;;;;;16.77;5.87;;;;;;;8.75;73.28;101115.53;1830337;78;21101;-54
2021/05/04 00:29:32;;;;;;;14.00;8.90;;;;;;;8.75;73.21;101126.23;1830255;78;21150;-56
2021/05/04 00:31:59;;;;;;;14.28;7.00;;;;;;;8.74;73.37;101132.49;1830312;78;21106;-56
2021/05/04 00:34:28;;;;;;;14.55;8.13;;;;;;;8.72;73.45;101132.52;1830314;78;21654;-56
2021/05/04 00:36:56;;;;;;;12.60;7.50;;;;;;;8.74;73.51;101141.84;1830214;78;21042;-56
2021/05/04 00:39:27;;;;;;;17.37;8.35;;;;;;;8.73;73.44;101134.27;1830262;78;21006;-55
2021/05/04 00:41:54;;;;;;;14.38;8.03;;;;;;;8.74;73.35;101129.81;1830296;78;21113;-55
2021/05/04 00:44:21;;;;;;;12.13;6.65;;;;;;;8.75;73.26;101119.55;1830262;78;21078;-55
2021/05/04 00:46:49;;;;;;;13.58;8.28;;;;;;;8.77;73.17;101135.09;1830342;77;21369;-55
2021/05/04 00:49:17;;;;;;;14.87;9.95;;;;;;;8.76;73.12;101133.34;1830168;77;20885;-55
2021/05/04 00:51:45;;;;;;;13.85;7.33;;;;;;;8.75;73.07;101126.23;1830455;78;20912;-55
2021/05/04 00:54:14;;;;;;;24.05;14.23;;;;;;;8.77;72.85;101135.09;1830331;77;21106;-55
2021/05/04 00:56:41;;;;;;;27.42;15.70;;;;;;;8.79;72.42;101124.34;1833010;77;21104;-55
2021/05/04 00:59:11;;;;;;;26.55;15.93;;;;;;;8.84;72.18;101131.80;1818605;77;21321;-55
2021/05/04 01:01:38;;;;;;;21.82;13.45;;;;;;;8.84;71.85;101127.36;1818588;77;21061;-55
2021/05/04 01:04:06;;;;;;;23.40;13.08;;;;;;;8.87;71.45;101136.64;1846327;77;20949;-55
2021/05/04 01:06:34;;;;;;;19.35;11.60;;;;;;;8.88;71.46;101137.06;1855127;77;21166;-55
2021/05/04 01:09:02;;;;;;;21.80;12.07;;;;;;;8.88;71.28;101139.73;1863217;77;21457;-55
2021/05/04 01:11:30;;;;;;;17.42;11.38;;;;;;;8.89;70.79;101142.84;1862973;77;21349;-55
2021/05/04 01:13:58;;;;;;;25.40;12.98;;;;;;;8.90;70.17;101147.74;1863081;77;21111;-55
2021/05/04 01:16:26;;;;;;;18.40;12.10;;;;;;;8.94;70.22;101147.20;1863070;77;21095;-55
2021/05/04 01:18:54;;;;;;;20.20;12.55;;;;;;;8.93;70.24;101146.77;1863068;77;21142;-55
2021/05/04 01:21:21;;;;;;;26.45;15.08;;;;;;;8.93;70.22;101145.00;1863064;77;21095;-55
2021/05/04 01:23:49;;;;;;;24.50;13.55;;;;;;;8.93;70.33;101144.09;1863057;77;21338;-55
2021/05/04 01:26:17;;;;;;;19.23;12.18;;;;;;;8.93;70.47;101138.75;1862972;77;21484;-55
2021/05/04 01:28:47;;;;;;;23.62;11.40;;;;;;;8.91;70.62;101133.90;1863097;77;21056;-54
2021/05/04 01:31:14;;;;;;;15.03;8.85;;;;;;;8.89;70.83;101134.81;1862784;77;21108;-54
2021/05/04 01:33:42;;;;;;;18.40;11.57;;;;;;;8.86;71.00;101136.70;1863068;77;21119;-55
2021/05/04 01:36:11;;;;;;;22.90;11.33;;;;;;;8.81;71.25;101142.13;1863006;77;21645;-54
2021/05/04 01:38:39;;;;;;;15.25;9.75;;;;;;;8.74;71.32;101140.04;1863013;77;21476;-54
2021/05/04 01:41:07;;;;;;;15.78;9.00;;;;;;;8.74;71.46;101143.19;1863035;77;21044;-54
2021/05/04 01:43:35;;;;;;;18.37;10.10;;;;;;;8.71;71.48;101151.24;1863113;77;21135;-54
2021/05/04 01:46:02;;;;;;;14.93;8.15;;;;;;;8.70;71.54;101154.83;1862953;77;21094;-54
2021/05/04 01:48:30;;;;;;;21.95;12.18;;;;;;;8.69;71.53;101159.75;1863127;77;22441;-54
2021/05/04 01:50:58;;;;;;;23.30;13.45;;;;;;;8.66;71.40;101160.72;1862968;77;21087;-56
2021/05/04 01:53:26;;;;;;;28.62;17.20;;;;;;;8.67;71.29;101160.24;1863039;77;21043;-54
2021/05/04 01:55:53;;;;;;;22.73;14.60;;;;;;;8.68;71.09;101162.00;1862963;77;21122;-54
2021/05/04 01:58:21;;;;;;;22.35;13.68;;;;;;;8.71;70.77;101168.62;1839668;77;21121;-54
2021/05/04 02:00:49;;;;;;;25.52;13.48;;;;;;;8.74;70.24;101171.26;1835501;78;21500;-54
2021/05/04 02:03:16;;;;;;;23.87;11.80;;;;;;;8.77;69.98;101173.86;1835394;78;21185;-54
2021/05/04 02:05:45;;;;;;;28.70;15.98;;;;;;;8.78;69.94;101175.63;1835256;78;21141;-54
2021/05/04 02:08:13;;;;;;;27.37;14.38;;;;;;;8.79;69.60;101178.72;1835574;78;21098;-57
2021/05/04 02:10:41;;;;;;;16.10;9.85;;;;;;;8.81;69.04;101182.23;1835738;78;21138;-54
2021/05/04 02:13:09;;;;;;;15.35;9.98;;;;;;;8.84;69.34;101187.52;1835616;78;21687;-55
2021/05/04 02:15:37;;;;;;;14.45;7.72;;;;;;;8.86;69.42;101188.36;1835583;78;21062;-56
2021/05/04 02:18:05;;;;;;;15.45;7.97;;;;;;;8.86;69.25;101192.38;1835582;77;21121;-55
2021/05/04 02:20:32;;;;;;;15.65;9.30;;;;;;;8.85;69.13;101195.09;1835528;78;21142;-55
2021/05/04 02:23:00;;;;;;;20.40;9.75;;;;;;;8.84;69.11;101193.30;1835702;78;21138;-55
2021/05/04 02:25:28;;;;;;;25.97;13.83;;;;;;;8.82;69.02;101197.37;1835550;78;21496;-55
2021/05/04 02:27:55;;;;;;;43.02;23.07;;;;;;;8.81;68.86;101192.94;1835620;78;21054;-56
2021/05/04 02:30:24;;;;;;;32.85;19.07;;;;;;;8.79;68.87;101184.06;1835640;78;21070;-55
2021/05/04 02:32:52;;;;;;;39.00;21.82;;;;;;;8.79;68.75;101184.06;1835602;78;21122;-55
2021/05/04 02:35:19;;;;;;;26.35;14.65;;;;;;;8.76;68.71;101192.16;1835643;78;21034;-55
2021/05/04 02:37:47;;;;;;;18.52;9.25;;;;;;;8.74;68.97;101188.63;1835652;77;21185;-54
2021/05/04 02:40:15;;;;;;;11.97;5.65;;;;;;;8.70;69.21;101195.83;1835487;78;21502;-54
2021/05/04 02:42:43;;;;;;;7.28;4.28;;;;;;;8.66;69.34;101207.94;1835674;78;21102;-54
2021/05/04 02:45:12;;;;;;;11.53;3.55;;;;;;;8.60;69.50;101209.83;1835528;78;21130;-55
2021/05/04 02:47:39;;;;;;;14.83;3.60;;;;;;;8.55;69.71;101207.70;1835700;78;21030;-54
2021/05/04 02:50:09;;;;;;;7.50;3.40;;;;;;;8.52;69.82;101213.11;1835597;78;21688;-55
2021/05/04 02:52:37;;;;;;;7.03;3.22;;;;;;;8.50;70.15;101220.72;1835643;78;21169;-55
2021/05/04 02:55:05;;;;;;;5.58;2.87;;;;;;;8.48;70.27;101213.16;1835703;77;21158;-55
2021/05/04 02:57:32;;;;;;;6.20;3.45;;;;;;;8.44;70.56;101211.88;1846777;77;21150;-54
2021/05/04 03:00:00;;;;;;;9.00;3.70;;;;;;;8.41;70.78;101217.73;1857610;77;21091;-55
2021/05/04 03:02:27;;;;;;;6.78;3.27;;;;;;;8.38;71.13;101215.12;1857532;77;21236;-55
2021/05/04 03:04:55;;;;;;;4.85;2.90;;;;;;;8.35;71.22;101215.18;1857548;77;21131;-55
2021/05/04 03:07:23;;;;;;;5.22;3.12;;;;;;;8.35;71.26;101217.85;1858697;77;21111;-54
2021/05/04 03:09:51;;;;;;;9.70;3.25;;;;;;;8.39;71.31;101224.89;1859715;77;21119;-54
2021/05/04 03:12:19;;;;;;;13.55;3.55;;;;;;;8.40;71.44;101223.98;1859676;77;21051;-55
2021/05/04 03:14:46;;;;;;;10.63;3.20;;;;;;;8.42;71.52;101228.84;1859659;77;21667;-54
2021/05/04 03:17:15;;;;;;;6.53;2.92;;;;;;;8.40;71.62;101231.56;1859606;77;21051;-54
2021/05/04 03:19:44;;;;;;;7.15;3.35;;;;;;;8.41;71.71;101229.75;1859717;77;21151;-55
2021/05/04 03:22:12;;;;;;;8.28;3.30;;;;;;;8.39;71.81;101235.11;1859554;77;21539;-54
2021/05/04 03:24:41;;;;;;;6.58;3.80;;;;;;;8.41;71.67;101240.00;1859636;77;21028;-54
2021/05/04 03:27:08;;;;;;;8.95;4.42;;;;;;;8.47;71.56;101241.66;1859599;77;21317;-54
2021/05/04 03:29:37;;;;;;;9.83;6.72;;;;;;;8.52;71.23;101251.86;1859586;77;20890;-54
2021/05/04 03:32:05;;;;;;;10.05;5.35;;;;;;;8.60;70.96;101256.60;1859694;77;21095;-54
2021/05/04 03:34:33;;;;;;;7.60;4.60;;;;;;;8.69;70.60;101265.34;1859540;77;21127;-54
2021/05/04 03:37:01;;;;;;;16.10;6.78;;;;;;;8.78;70.49;101257.17;1859703;77;21154;-54
2021/05/04 03:39:28;;;;;;;22.32;12.58;;;;;;;8.87;70.35;101263.66;1859640;77;21413;-54
2021/05/04 03:41:56;;;;;;;22.62;12.15;;;;;;;8.97;70.02;101259.48;1859631;77;21040;-55
2021/05/04 03:44:24;;;;;;;20.00;9.98;;;;;;;9.05;69.78;101263.31;1859572;77;21090;-54
2021/05/04 03:46:51;;;;;;;21.00;10.90;;;;;;;9.14;69.58;101269.83;1859711;77;21206;-55
2021/05/04 03:49:19;;;;;;;22.20;13.98;;;;;;;9.21;69.45;101269.25;1859725;77;21201;-54
2021/05/04 03:51:47;;;;;;;31.50;20.12;;;;;;;9.25;69.33;101274.95;1859689;77;22343;-54
2021/05/04 03:54:14;;;;;;;28.27;16.55;;;;;;;9.33;68.77;101272.98;1859631;77;21146;-54
2021/05/04 03:56:42;;;;;;;25.35;14.55;;;;;;;9.37;68.56;101278.69;1853840;77;21102;-54
2021/05/04 03:59:10;;;;;;;22.82;13.40;;;;;;;9.41;68.50;101279.52;1824149;78;21023;-54
2021/05/04 04:01:38;;;;;;;21.77;13.55;;;;;;;9.43;68.41;101275.91;1824195;78;21102;-54
2021/05/04 04:04:06;;;;;;;18.60;11.28;;;;;;;9.43;68.49;101273.23;1824258;78;21346;-54
2021/05/04 04:06:34;;;;;;;17.12;11.12;;;;;;;9.43;68.57;101277.69;1823940;77;21154;-54
2021/05/04 04:09:02;;;;;;;17.52;10.32;;;;;;;9.42;68.94;101276.83;1824197;78;21102;-54
2021/05/04 04:11:30;;;;;;;14.07;7.92;;;;;;;9.49;68.74;101283.38;1824194;78;21043;-54
2021/05/04 04:13:59;;;;;;;9.93;6.30;;;;;;;9.59;68.30;101283.58;1824189;78;21062;-54
2021/05/04 04:16:28;;;;;;;11.33;5.53;;;;;;;9.70;67.96;101286.91;1824133;77;21059;-54
2021/05/04 04:18:56;;;;;;;12.58;5.70;;;;;;;9.83;67.16;101286.61;1824151;77;21043;-54
2021/05/04 04:21:23;;;;;;;10.68;4.53;;;;;;;9.95;66.60;101291.69;1824243;78;21102;-54
2021/05/04 04:23:52;;;;;;;8.28;4.90;;;;;;;10.08;65.77;101284.23;1824091;78;21122;-54
2021/05/04 04:26:20;;;;;;;9.50;5.50;;;;;;;10.20;65.52;101289.75;1824344;78;21054;-54
2021/05/04 04:28:47;;;;;;;10.72;6.08;;;;;;;10.35;64.85;101295.66;1824352;78;21647;-54
2021/05/04 04:31:15;;;;;;;9.63;5.22;;;;;;;10.48;64.45;101305.16;1824335;78;21055;-56
2021/05/04 04:33:43;;;;;;;9.28;4.17;;;;;;;10.57;63.05;101300.92;1824286;78;20995;-55
2021/05/04 04:36:12;;;;;;;8.45;4.25;;;;;;;10.65;62.42;101306.08;1824397;78;20988;-54
2021/05/04 04:38:40;;;;;;;6.58;4.37;;;;;;;10.71;61.49;101307.25;1824415;78;21719;-55
2021/05/04 04:41:08;;;;;;;11.75;4.83;;;;;;;10.79;60.95;101307.05;1824446;78;21684;-55
2021/05/04 04:43:36;;;;;;;16.37;6.45;;;;;;;10.87;61.09;101311.73;1824293;78;21106;-56
2021/05/04 04:46:03;;;;;;;13.10;6.70;;;;;;;10.93;60.29;101305.77;1824349;77;21126;-56
2021/05/04 04:48:33;;;;;;;9.93;6.10;;;;;;;11.02;60.18;101300.17;1824342;78;21142;-56
2021/05/04 04:51:01;;;;;;;14.63;4.37;;;;;;;11.11;60.17;101293.67;1824262;78;21153;-55
2021/05/04 04:53:28;;;;;;;8.20;3.60;;;;;;;11.22;59.99;101298.73;1824517;78;21344;-55
2021/05/04 04:55:56;;;;;;;18.95;3.80;;;;;;;11.30;60.29;101296.69;1824220;78;21071;-56
2021/05/04 04:58:24;;;;;;;9.60;3.42;;;;;;;11.40;59.66;101301.33;1828978;78;21082;-56
2021/05/04 05:00:52;;;;;;;10.93;3.52;;;;;;;11.46;59.40;101307.84;1829481;78;21098;-56
2021/05/04 05:03:23;;;;;;;12.45;3.33;;;;;;;11.50;58.72;101308.20;1829600;78;21051;-56
2021/05/04 05:05:53;;;;;;;14.47;3.70;;;;;;;11.53;58.04;101311.23;1829480;78;21241;-56
2021/05/04 05:08:20;;;;;;;13.08;3.50;;;;;;;11.54;58.62;101311.20;1813073;78;21078;-54
2021/05/04 05:10:48;;;;;;;9.33;3.65;;;;;;;11.67;58.55;101304.99;1835385;78;21058;-55
2021/05/04 05:13:16;;;;;;;23.52;4.10;;;;;;;11.81;58.19;101313.96;1835418;77;21054;-54
2021/05/04 05:15:44;;;;;;;13.72;3.62;;;;;;;11.92;57.57;101314.08;1835406;78;21102;-54
2021/05/04 05:18:11;;;;;;;13.22;4.00;;;;;;;12.05;57.35;101316.83;1835402;78;21727;-54
2021/05/04 05:20:41;;;;;;;17.20;4.22;;;;;;;12.17;56.50;101311.07;1835393;78;21065;-56
2021/05/04 05:23:09;;;;;;;4.85;3.52;;;;;;;12.24;56.12;101317.09;1835143;77;21126;-56
2021/05/04 05:25:36;;;;;;;6.92;3.85;;;;;;;12.32;55.58;101316.84;1835455;78;21106;-56
2021/05/04 05:28:05;;;;;;;10.72;3.62;;;;;;;12.43;55.27;101320.07;1835252;78;21157;-55
2021/05/04 05:30:34;;;;;;;10.13;3.85;;;;;;;12.53;54.87;101311.23;1835419;77;21188;-55
2021/05/04 05:33:01;;;;;;;13.80;4.12;;;;;;;12.59;54.94;101304.28;1835298;77;21113;-56
2021/05/04 05:35:30;;;;;;;11.28;4.15;;;;;;;12.66;54.87;101309.44;1835408;78;21039;-56
2021/05/04 05:37:57;;;;;;;7.37;3.60;;;;;;;12.72;54.57;101311.94;1835321;77;21035;-54
2021/05/04 05:40:26;;;;;;;15.03;4.22;;;;;;;12.78;54.54;101305.44;1835459;78;21035;-56
2021/05/04 05:42:54;;;;;;;10.60;4.15;;;;;;;12.89;54.63;101304.13;1835335;78;21110;-56
2021/05/04 05:45:22;;;;;;;10.08;4.22;;;;;;;13.01;54.06;101318.09;1835345;78;21094;-55
2021/05/04 05:47:49;;;;;;;7.12;4.30;;;;;;;13.12;53.87;101315.86;1835334;78;20880;-56
